createdAt,value
2023-03-23T16:01:08.776Z,14.60
2023-03-23T16:58:13.226Z,14.20
2023-03-23T17:01:17.697Z,14.20
2023-03-23T17:04:19.326Z,14.20
2023-03-23T17:07:20.936Z,14.10
2023-03-23T17:10:26.902Z,14.10
2023-03-23T17:13:28.574Z,14.10
2023-03-23T17:16:30.322Z,14.00
2023-03-23T17:19:32.065Z,14.00
2023-03-23T17:22:33.895Z,13.90
2023-03-23T17:25:35.549Z,13.90
2023-03-23T17:28:37.277Z,13.80
2023-03-23T17:31:39.116Z,13.80
2023-03-23T17:34:41.461Z,13.80
2023-03-23T17:37:43.466Z,13.70
2023-03-23T17:40:45.128Z,13.70
2023-03-23T17:43:47.225Z,13.60
2023-03-23T17:46:48.860Z,13.50
2023-03-23T17:49:51.242Z,13.50
2023-03-23T17:52:52.821Z,13.40
2023-03-23T17:55:54.961Z,13.40
2023-03-23T17:58:56.569Z,13.30
2023-03-23T18:01:58.251Z,13.30
2023-03-23T18:04:59.895Z,13.30
2023-03-23T18:08:01.476Z,13.20
2023-03-23T18:11:04.010Z,13.20
2023-03-23T18:14:06.204Z,13.20
2023-03-23T18:17:08.320Z,13.20
2023-03-23T18:20:10.088Z,13.20
2023-03-23T18:23:12.121Z,13.20
2023-03-23T18:26:14.186Z,13.30
2023-03-23T18:29:15.790Z,13.30
2023-03-23T18:32:19.611Z,13.30
2023-03-23T18:35:21.411Z,13.30
2023-03-23T18:38:22.966Z,13.30
2023-03-23T18:41:25.065Z,13.30
2023-03-23T18:44:26.743Z,13.40
2023-03-23T18:47:28.510Z,13.40
2023-03-23T18:50:30.123Z,13.50
2023-03-23T18:53:32.964Z,13.50
2023-03-23T18:56:34.634Z,13.60
2023-03-23T18:59:36.940Z,13.60
2023-03-23T19:02:39.851Z,13.60
2023-03-23T19:05:42.443Z,13.70
2023-03-23T19:08:45.338Z,13.70
2023-03-23T19:11:47.360Z,13.70
2023-03-23T19:14:49.101Z,13.70
2023-03-23T19:17:56.093Z,13.70
2023-03-23T19:24:03.852Z,13.70
2023-03-23T19:27:05.955Z,13.70
2023-03-23T19:30:08.235Z,13.70
2023-03-23T19:33:09.933Z,13.70
2023-03-23T19:36:13.250Z,13.70
2023-03-23T19:39:15.371Z,13.70
2023-03-23T19:42:18.586Z,13.70
2023-03-23T19:45:20.286Z,13.70
2023-03-23T19:48:22.055Z,13.60
2023-03-23T19:51:24.521Z,13.60
2023-03-23T19:54:26.157Z,13.60
2023-03-23T19:57:28.012Z,13.60
2023-03-23T20:00:29.654Z,13.60
2023-03-23T20:03:31.557Z,13.50
2023-03-23T20:06:33.557Z,13.50
2023-03-23T20:09:35.928Z,13.50
2023-03-23T20:12:37.617Z,13.50
2023-03-23T20:15:39.208Z,13.50
2023-03-23T20:18:41.183Z,13.50
2023-03-23T20:21:43.513Z,13.50
2023-03-23T20:24:47.264Z,13.40
2023-03-23T20:27:49.023Z,13.40
2023-03-23T20:31:16.926Z,13.40
2023-03-23T20:34:28.909Z,13.40
2023-03-23T20:37:32.037Z,13.30
2023-03-23T20:40:33.983Z,13.30
2023-03-23T20:43:35.852Z,13.20
2023-03-23T20:46:37.484Z,13.20
2023-03-23T20:49:40.358Z,13.10
2023-03-23T20:52:41.927Z,13.10
2023-03-23T20:55:43.733Z,13.10
2023-03-23T20:58:45.787Z,13.10
2023-03-23T21:01:50.342Z,13.00
2023-03-23T21:04:52.812Z,13.00
2023-03-23T21:07:55.658Z,13.00
2023-03-23T21:10:58.089Z,13.00
2023-03-23T21:13:59.654Z,13.00
2023-03-23T21:17:01.511Z,13.00
2023-03-23T21:20:04.923Z,13.00
2023-03-23T21:23:07.628Z,13.00
2023-03-23T21:26:10.632Z,13.00
2023-03-23T21:29:12.205Z,13.10
2023-03-23T21:32:13.811Z,13.10
2023-03-23T21:35:15.442Z,13.10
2023-03-23T21:38:19.752Z,13.10
2023-03-23T21:41:21.775Z,13.10
2023-03-23T21:44:23.516Z,13.10
2023-03-23T21:47:26.466Z,13.10
2023-03-23T21:50:29.951Z,13.10
2023-03-23T21:53:33.810Z,13.20
2023-03-23T21:56:35.805Z,13.20
2023-03-23T21:59:37.382Z,13.20
2023-03-23T22:02:39.173Z,13.20
2023-03-23T22:05:40.972Z,13.20
2023-03-23T22:08:44.249Z,13.30
2023-03-23T22:11:46.233Z,13.30
2023-03-23T22:14:47.822Z,13.30
2023-03-23T22:17:49.474Z,13.40
2023-03-23T22:20:51.106Z,13.50
2023-03-23T22:23:58.737Z,13.50
2023-03-23T22:27:00.588Z,13.60
2023-03-23T22:30:02.449Z,13.70
2023-03-23T22:33:04.608Z,13.70
2023-03-23T22:36:07.233Z,13.80
2023-03-23T22:39:09.680Z,13.90
2023-03-23T22:42:12.426Z,13.90
2023-03-23T22:45:15.216Z,14.00
2023-03-23T22:48:17.411Z,14.00
2023-03-23T22:51:20.153Z,14.00
2023-03-23T22:54:22.009Z,14.00
2023-03-23T22:57:23.594Z,14.00
2023-03-23T23:00:26.236Z,14.00
2023-03-23T23:03:28.278Z,14.00
2023-03-23T23:06:29.993Z,14.00
2023-03-23T23:09:31.639Z,14.00
2023-03-23T23:12:34.920Z,14.00
2023-03-23T23:15:37.784Z,13.90
2023-03-23T23:18:40.624Z,13.90
2023-03-23T23:21:42.259Z,13.70
2023-03-23T23:24:46.013Z,13.60
2023-03-23T23:27:47.576Z,13.60
2023-03-23T23:30:49.749Z,13.60
2023-03-23T23:33:52.828Z,13.60
2023-03-23T23:36:54.854Z,13.50
2023-03-23T23:39:56.627Z,13.50
2023-03-23T23:42:58.723Z,13.60
2023-03-23T23:46:00.374Z,13.60
2023-03-23T23:49:02.194Z,13.60
2023-03-23T23:52:04.510Z,13.50
2023-03-23T23:55:08.927Z,13.50
2023-03-23T23:58:10.571Z,13.50
